Dixie, Washington
Current Conditions -  °F | °C
As of 3:53 AM on Friday 24 Oct 2014 (Local Time) from KALW Reporting Station
Broken Clouds Broken Clouds  
Wind Chill: 52°   Ceiling: 6000
Heat Index: 52°   Visibility: 10mi
Dew Point: 45°   Wind: 6mph
Humidity: 77%   Direction: 110°ESE
Pressure: 30.04"   Gusts: NA
Location:  46.14°N, 118.16°W
Report Text: KALW 241053Z AUTO 11005KT 10SM BKN060 11/07 A3004 RMK AO2 SLP174 T01110072
Loading
Personal Weather Stations






























Interactive Weather Map
Tropical Storm Tracking
New forecast layout! Learn more

10-Day Weather Forecast

Advertisements
Track Severe Weather on mobile